sensor_id;sensor_type;location;lat;lon;timestamp;pressure;altitude;pressure_sealevel;temperature;humidity
21086;BME280;34247;50.064;19.970;2023-03-15T00:00:36;97860.97;;;11.65;72.89
21086;BME280;34247;50.064;19.970;2023-03-15T00:01:40;97877.75;;;11.65;72.65
21086;BME280;34247;50.064;19.970;2023-03-15T00:02:43;97884.34;;;11.61;72.53
21086;BME280;34247;50.064;19.970;2023-03-15T00:03:47;97883.38;;;11.62;72.57
21086;BME280;34247;50.064;19.970;2023-03-15T00:04:51;97882.53;;;11.62;72.21
21086;BME280;34247;50.064;19.970;2023-03-15T00:06:00;97883.78;;;11.57;72.24
21086;BME280;34247;50.064;19.970;2023-03-15T00:07:08;97894.56;;;11.56;72.50
21086;BME280;34247;50.064;19.970;2023-03-15T00:08:13;97908.84;;;11.55;72.89
21086;BME280;34247;50.064;19.970;2023-03-15T00:09:21;97887.03;;;11.51;72.69
21086;BME280;34247;50.064;19.970;2023-03-15T00:10:25;97911.53;;;11.45;72.87
21086;BME280;34247;50.064;19.970;2023-03-15T00:11:30;97929.41;;;11.43;72.73
21086;BME280;34247;50.064;19.970;2023-03-15T00:12:34;97918.13;;;11.31;72.92
21086;BME280;34247;50.064;19.970;2023-03-15T00:13:48;97931.97;;;11.25;72.97
21086;BME280;34247;50.064;19.970;2023-03-15T00:14:57;97938.25;;;11.15;73.22
21086;BME280;34247;50.064;19.970;2023-03-15T00:16:02;97946.66;;;11.10;73.44
21086;BME280;34247;50.064;19.970;2023-03-15T00:17:17;97955.88;;;11.06;73.29
21086;BME280;34247;50.064;19.970;2023-03-15T00:18:25;97959.09;;;11.00;73.42
21086;BME280;34247;50.064;19.970;2023-03-15T00:19:36;97971.53;;;10.99;73.34
21086;BME280;34247;50.064;19.970;2023-03-15T00:20:44;97970.69;;;10.89;72.99
21086;BME280;34247;50.064;19.970;2023-03-15T00:21:50;97980.19;;;10.82;73.36
21086;BME280;34247;50.064;19.970;2023-03-15T00:22:56;97981.72;;;10.75;72.99
21086;BME280;34247;50.064;19.970;2023-03-15T00:24:02;97987.25;;;10.62;73.46
21086;BME280;34247;50.064;19.970;2023-03-15T00:25:11;97997.34;;;10.68;73.33
21086;BME280;34247;50.064;19.970;2023-03-15T00:26:15;97992.84;;;10.59;73.83
21086;BME280;34247;50.064;19.970;2023-03-15T00:27:24;97981.81;;;10.54;73.61
21086;BME280;34247;50.064;19.970;2023-03-15T00:28:37;97989.75;;;10.44;73.70
21086;BME280;34247;50.064;19.970;2023-03-15T00:29:45;98001.44;;;10.42;73.92
21086;BME280;34247;50.064;19.970;2023-03-15T00:31:21;98008.53;;;10.32;74.28
21086;BME280;34247;50.064;19.970;2023-03-15T00:32:32;98014.81;;;10.31;74.17
21086;BME280;34247;50.064;19.970;2023-03-15T00:33:39;98000.13;;;10.27;74.47
21086;BME280;34247;50.064;19.970;2023-03-15T00:34:46;98017.72;;;10.28;74.49
21086;BME280;34247;50.064;19.970;2023-03-15T00:35:58;98017.31;;;10.23;75.08
21086;BME280;34247;50.064;19.970;2023-03-15T00:37:11;98033.00;;;10.14;75.70
21086;BME280;34247;50.064;19.970;2023-03-15T00:38:20;98039.25;;;10.13;75.88
21086;BME280;34247;50.064;19.970;2023-03-15T00:39:25;98044.38;;;10.05;76.38
21086;BME280;34247;50.064;19.970;2023-03-15T00:40:30;98054.75;;;10.08;76.11
21086;BME280;34247;50.064;19.970;2023-03-15T00:41:34;98053.13;;;9.96;76.61
21086;BME280;34247;50.064;19.970;2023-03-15T00:42:39;98050.63;;;9.94;77.20
21086;BME280;34247;50.064;19.970;2023-03-15T00:43:48;98059.91;;;9.89;77.06
21086;BME280;34247;50.064;19.970;2023-03-15T00:44:59;98073.97;;;9.80;77.54
21086;BME280;34247;50.064;19.970;2023-03-15T00:46:18;98069.88;;;9.76;78.17
21086;BME280;34247;50.064;19.970;2023-03-15T00:47:27;98076.66;;;9.68;78.35
21086;BME280;34247;50.064;19.970;2023-03-15T00:48:37;98085.09;;;9.62;78.55
21086;BME280;34247;50.064;19.970;2023-03-15T00:49:46;98085.72;;;9.66;78.60
21086;BME280;34247;50.064;19.970;2023-03-15T00:51:36;98093.69;;;9.55;78.94
21086;BME280;34247;50.064;19.970;2023-03-15T00:52:44;98097.31;;;9.54;79.36
21086;BME280;34247;50.064;19.970;2023-03-15T00:53:57;98107.06;;;9.53;79.22
21086;BME280;34247;50.064;19.970;2023-03-15T00:55:04;98098.91;;;9.45;79.63
21086;BME280;34247;50.064;19.970;2023-03-15T00:56:13;98106.53;;;9.38;79.75
21086;BME280;34247;50.064;19.970;2023-03-15T00:57:17;98104.13;;;9.35;80.00
21086;BME280;34247;50.064;19.970;2023-03-15T00:58:23;98107.66;;;9.25;80.11
21086;BME280;34247;50.064;19.970;2023-03-15T00:59:32;98125.63;;;9.10;80.80
21086;BME280;34247;50.064;19.970;2023-03-15T01:00:38;98127.56;;;9.08;80.86
21086;BME280;34247;50.064;19.970;2023-03-15T01:01:42;98111.91;;;9.05;80.65
21086;BME280;34247;50.064;19.970;2023-03-15T01:02:47;98127.06;;;9.03;80.40
21086;BME280;34247;50.064;19.970;2023-03-15T01:03:53;98148.38;;;8.90;80.49
21086;BME280;34247;50.064;19.970;2023-03-15T01:04:56;98138.31;;;8.84;80.95
21086;BME280;34247;50.064;19.970;2023-03-15T01:06:23;98140.22;;;8.71;81.22
21086;BME280;34247;50.064;19.970;2023-03-15T01:07:27;98143.09;;;8.68;81.30
21086;BME280;34247;50.064;19.970;2023-03-15T01:08:31;98138.41;;;8.60;81.42
21086;BME280;34247;50.064;19.970;2023-03-15T01:09:35;98141.19;;;8.59;81.20
21086;BME280;34247;50.064;19.970;2023-03-15T01:10:44;98158.59;;;8.61;80.81
21086;BME280;34247;50.064;19.970;2023-03-15T01:11:53;98148.16;;;8.48;80.78
21086;BME280;34247;50.064;19.970;2023-03-15T01:13:00;98156.56;;;8.42;80.85
21086;BME280;34247;50.064;19.970;2023-03-15T01:14:10;98161.56;;;8.34;81.09
21086;BME280;34247;50.064;19.970;2023-03-15T01:15:23;98166.94;;;8.33;80.98
21086;BME280;34247;50.064;19.970;2023-03-15T01:16:29;98169.72;;;8.31;80.92
21086;BME280;34247;50.064;19.970;2023-03-15T01:17:35;98170.44;;;8.22;80.53
21086;BME280;34247;50.064;19.970;2023-03-15T01:18:59;98175.22;;;8.17;80.71
21086;BME280;34247;50.064;19.970;2023-03-15T01:20:13;98180.25;;;8.09;80.59
21086;BME280;34247;50.064;19.970;2023-03-15T01:21:22;98184.81;;;8.07;81.03
21086;BME280;34247;50.064;19.970;2023-03-15T01:22:31;98179.53;;;8.07;81.21
21086;BME280;34247;50.064;19.970;2023-03-15T01:23:43;98186.81;;;8.03;80.83
21086;BME280;34247;50.064;19.970;2023-03-15T01:25:03;98205.25;;;8.05;80.25
21086;BME280;34247;50.064;19.970;2023-03-15T01:26:19;98202.28;;;7.96;80.92
21086;BME280;34247;50.064;19.970;2023-03-15T01:27:33;98204.94;;;7.96;80.79
21086;BME280;34247;50.064;19.970;2023-03-15T01:28:49;98204.22;;;7.94;81.14
21086;BME280;34247;50.064;19.970;2023-03-15T01:29:56;98205.50;;;7.89;81.20
21086;BME280;34247;50.064;19.970;2023-03-15T01:31:03;98209.34;;;7.85;81.64
21086;BME280;34247;50.064;19.970;2023-03-15T01:32:07;98208.72;;;7.81;81.48
21086;BME280;34247;50.064;19.970;2023-03-15T01:33:12;98223.75;;;7.81;81.56
21086;BME280;34247;50.064;19.970;2023-03-15T01:34:16;98226.50;;;7.79;81.72
21086;BME280;34247;50.064;19.970;2023-03-15T01:35:23;98228.28;;;7.79;81.60
21086;BME280;34247;50.064;19.970;2023-03-15T01:36:30;98237.06;;;7.79;81.36
21086;BME280;34247;50.064;19.970;2023-03-15T01:37:35;98222.28;;;7.77;81.09
21086;BME280;34247;50.064;19.970;2023-03-15T01:38:46;98247.88;;;7.76;81.18
21086;BME280;34247;50.064;19.970;2023-03-15T01:39:56;98247.94;;;7.74;81.08
21086;BME280;34247;50.064;19.970;2023-03-15T01:41:01;98247.34;;;7.71;80.77
21086;BME280;34247;50.064;19.970;2023-03-15T01:42:08;98263.91;;;7.73;80.58
21086;BME280;34247;50.064;19.970;2023-03-15T01:43:23;98259.19;;;7.65;81.06
21086;BME280;34247;50.064;19.970;2023-03-15T01:45:47;98273.06;;;7.56;79.66
21086;BME280;34247;50.064;19.970;2023-03-15T01:46:32;98283.00;;;7.53;78.81
21086;BME280;34247;50.064;19.970;2023-03-15T01:47:38;98283.97;;;7.52;77.88
21086;BME280;34247;50.064;19.970;2023-03-15T01:50:40;98284.63;;;7.42;74.66
21086;BME280;34247;50.064;19.970;2023-03-15T01:52:09;98295.28;;;7.41;74.48
21086;BME280;34247;50.064;19.970;2023-03-15T01:53:28;98303.00;;;7.31;73.42
21086;BME280;34247;50.064;19.970;2023-03-15T01:54:57;98300.91;;;7.24;72.68
21086;BME280;34247;50.064;19.970;2023-03-15T01:56:09;98315.59;;;7.28;72.64
21086;BME280;34247;50.064;19.970;2023-03-15T01:57:56;98310.97;;;7.18;72.40
21086;BME280;34247;50.064;19.970;2023-03-15T01:59:12;98306.94;;;7.13;72.30
21086;BME280;34247;50.064;19.970;2023-03-15T02:00:19;98316.84;;;7.09;72.21
21086;BME280;34247;50.064;19.970;2023-03-15T02:01:53;98314.75;;;7.02;71.53
21086;BME280;34247;50.064;19.970;2023-03-15T02:03:12;98320.25;;;6.99;71.50
21086;BME280;34247;50.064;19.970;2023-03-15T02:05:15;98319.84;;;7.05;71.48
21086;BME280;34247;50.064;19.970;2023-03-15T02:06:35;98306.84;;;7.02;71.10
21086;BME280;34247;50.064;19.970;2023-03-15T02:07:44;98309.69;;;6.99;71.00
21086;BME280;34247;50.064;19.970;2023-03-15T02:09:19;98311.78;;;6.94;70.74
21086;BME280;34247;50.064;19.970;2023-03-15T02:10:58;98316.88;;;6.84;71.00
21086;BME280;34247;50.064;19.970;2023-03-15T02:12:13;98328.91;;;6.75;71.19
21086;BME280;34247;50.064;19.970;2023-03-15T02:13:47;98328.56;;;6.80;71.46
21086;BME280;34247;50.064;19.970;2023-03-15T02:15:05;98336.91;;;6.74;71.94
21086;BME280;34247;50.064;19.970;2023-03-15T02:16:27;98339.84;;;6.69;71.94
21086;BME280;34247;50.064;19.970;2023-03-15T02:17:55;98335.19;;;6.73;71.96
21086;BME280;34247;50.064;19.970;2023-03-15T02:19:25;98355.69;;;6.69;71.67
21086;BME280;34247;50.064;19.970;2023-03-15T02:23:04;98361.56;;;6.60;71.26
21086;BME280;34247;50.064;19.970;2023-03-15T02:25:03;98362.81;;;6.54;70.82
21086;BME280;34247;50.064;19.970;2023-03-15T02:27:44;98365.75;;;6.50;70.35
21086;BME280;34247;50.064;19.970;2023-03-15T02:28:50;98376.69;;;6.44;70.19
21086;BME280;34247;50.064;19.970;2023-03-15T02:30:03;98368.16;;;6.40;70.61
21086;BME280;34247;50.064;19.970;2023-03-15T02:31:16;98372.88;;;6.35;70.49
21086;BME280;34247;50.064;19.970;2023-03-15T02:32:23;98370.56;;;6.30;70.94
21086;BME280;34247;50.064;19.970;2023-03-15T02:33:55;98384.75;;;6.28;70.84
21086;BME280;34247;50.064;19.970;2023-03-15T02:35:04;98374.13;;;6.29;71.33
21086;BME280;34247;50.064;19.970;2023-03-15T02:36:30;98377.41;;;6.33;71.47
21086;BME280;34247;50.064;19.970;2023-03-15T02:37:44;98372.88;;;6.35;71.17
21086;BME280;34247;50.064;19.970;2023-03-15T02:39:17;98384.94;;;6.39;71.36
21086;BME280;34247;50.064;19.970;2023-03-15T02:40:28;98382.53;;;6.49;70.98
21086;BME280;34247;50.064;19.970;2023-03-15T02:41:41;98377.97;;;6.51;71.07
21086;BME280;34247;50.064;19.970;2023-03-15T02:43:08;98376.13;;;6.53;71.09
21086;BME280;34247;50.064;19.970;2023-03-15T02:44:40;98375.78;;;6.57;71.06
21086;BME280;34247;50.064;19.970;2023-03-15T02:46:15;98374.66;;;6.61;71.02
21086;BME280;34247;50.064;19.970;2023-03-15T02:47:35;98380.66;;;6.63;71.10
21086;BME280;34247;50.064;19.970;2023-03-15T02:49:05;98375.59;;;6.60;71.36
21086;BME280;34247;50.064;19.970;2023-03-15T02:50:46;98391.09;;;6.65;71.33
21086;BME280;34247;50.064;19.970;2023-03-15T02:52:27;98380.28;;;6.43;72.56
21086;BME280;34247;50.064;19.970;2023-03-15T02:53:45;98385.88;;;6.38;73.30
21086;BME280;34247;50.064;19.970;2023-03-15T02:54:49;98385.94;;;6.36;73.36
21086;BME280;34247;50.064;19.970;2023-03-15T02:55:53;98389.75;;;6.32;73.69
21086;BME280;34247;50.064;19.970;2023-03-15T02:56:56;98398.38;;;6.34;74.15
21086;BME280;34247;50.064;19.970;2023-03-15T02:58:01;98390.69;;;6.31;74.19
21086;BME280;34247;50.064;19.970;2023-03-15T02:59:05;98399.84;;;6.26;74.29
21086;BME280;34247;50.064;19.970;2023-03-15T03:00:10;98410.28;;;6.27;74.43
21086;BME280;34247;50.064;19.970;2023-03-15T03:01:18;98413.50;;;6.18;74.73
21086;BME280;34247;50.064;19.970;2023-03-15T03:02:22;98403.16;;;6.15;75.00
21086;BME280;34247;50.064;19.970;2023-03-15T03:03:26;98411.94;;;6.16;75.16
21086;BME280;34247;50.064;19.970;2023-03-15T03:04:30;98416.16;;;6.18;74.90
21086;BME280;34247;50.064;19.970;2023-03-15T03:05:34;98414.84;;;6.11;74.54
21086;BME280;34247;50.064;19.970;2023-03-15T03:06:37;98413.25;;;6.08;74.90
21086;BME280;34247;50.064;19.970;2023-03-15T03:07:43;98418.72;;;6.05;74.94
21086;BME280;34247;50.064;19.970;2023-03-15T03:09:13;98421.44;;;6.04;74.58
21086;BME280;34247;50.064;19.970;2023-03-15T03:10:22;98427.66;;;6.03;74.78
21086;BME280;34247;50.064;19.970;2023-03-15T03:11:32;98433.69;;;6.05;74.83
21086;BME280;34247;50.064;19.970;2023-03-15T03:12:59;98425.97;;;6.02;74.53
21086;BME280;34247;50.064;19.970;2023-03-15T03:14:24;98441.38;;;6.08;75.11
21086;BME280;34247;50.064;19.970;2023-03-15T03:15:38;98452.22;;;6.03;74.99
21086;BME280;34247;50.064;19.970;2023-03-15T03:16:52;98455.59;;;6.05;75.05
21086;BME280;34247;50.064;19.970;2023-03-15T03:18:08;98458.34;;;6.04;74.66
21086;BME280;34247;50.064;19.970;2023-03-15T03:20:14;98468.31;;;5.99;75.20
21086;BME280;34247;50.064;19.970;2023-03-15T03:21:25;98469.25;;;5.98;75.24
21086;BME280;34247;50.064;19.970;2023-03-15T03:22:29;98464.25;;;5.93;75.12
21086;BME280;34247;50.064;19.970;2023-03-15T03:23:35;98462.75;;;6.03;74.75
21086;BME280;34247;50.064;19.970;2023-03-15T03:24:39;98462.28;;;6.11;74.50
21086;BME280;34247;50.064;19.970;2023-03-15T03:25:48;98455.00;;;6.15;74.50
21086;BME280;34247;50.064;19.970;2023-03-15T03:26:53;98452.56;;;6.12;74.16
21086;BME280;34247;50.064;19.970;2023-03-15T03:28:01;98455.22;;;6.12;74.29
21086;BME280;34247;50.064;19.970;2023-03-15T03:29:06;98450.16;;;6.08;74.24
21086;BME280;34247;50.064;19.970;2023-03-15T03:30:13;98446.91;;;6.18;74.17
21086;BME280;34247;50.064;19.970;2023-03-15T03:31:21;98450.19;;;6.21;74.25
21086;BME280;34247;50.064;19.970;2023-03-15T03:32:26;98452.25;;;6.30;74.10
21086;BME280;34247;50.064;19.970;2023-03-15T03:33:30;98453.63;;;6.36;74.03
21086;BME280;34247;50.064;19.970;2023-03-15T03:34:38;98451.66;;;6.40;74.29
21086;BME280;34247;50.064;19.970;2023-03-15T03:35:42;98456.59;;;6.31;74.42
21086;BME280;34247;50.064;19.970;2023-03-15T03:36:46;98450.00;;;6.24;74.92
21086;BME280;34247;50.064;19.970;2023-03-15T03:37:51;98445.38;;;6.28;75.03
21086;BME280;34247;50.064;19.970;2023-03-15T03:38:56;98458.44;;;6.29;75.16
21086;BME280;34247;50.064;19.970;2023-03-15T03:40:01;98453.00;;;6.32;74.87
21086;BME280;34247;50.064;19.970;2023-03-15T03:41:12;98461.28;;;6.26;74.40
21086;BME280;34247;50.064;19.970;2023-03-15T03:42:16;98466.66;;;6.25;74.86
21086;BME280;34247;50.064;19.970;2023-03-15T03:43:21;98460.84;;;6.20;74.75
21086;BME280;34247;50.064;19.970;2023-03-15T03:44:25;98474.97;;;6.19;74.60
21086;BME280;34247;50.064;19.970;2023-03-15T03:45:30;98464.31;;;6.20;74.85
21086;BME280;34247;50.064;19.970;2023-03-15T03:46:33;98468.47;;;6.24;74.49
21086;BME280;34247;50.064;19.970;2023-03-15T03:47:39;98465.47;;;6.16;74.18
21086;BME280;34247;50.064;19.970;2023-03-15T03:48:43;98472.81;;;6.11;74.20
21086;BME280;34247;50.064;19.970;2023-03-15T03:49:47;98474.13;;;6.18;74.42
21086;BME280;34247;50.064;19.970;2023-03-15T03:50:50;98477.69;;;6.17;73.80
21086;BME280;34247;50.064;19.970;2023-03-15T03:51:54;98468.28;;;6.13;73.59
21086;BME280;34247;50.064;19.970;2023-03-15T03:52:58;98474.69;;;6.09;73.74
21086;BME280;34247;50.064;19.970;2023-03-15T03:54:03;98487.22;;;6.05;73.94
21086;BME280;34247;50.064;19.970;2023-03-15T03:55:07;98489.47;;;6.12;73.67
21086;BME280;34247;50.064;19.970;2023-03-15T03:56:11;98486.16;;;6.08;73.37
21086;BME280;34247;50.064;19.970;2023-03-15T03:57:15;98484.56;;;6.05;73.14
21086;BME280;34247;50.064;19.970;2023-03-15T03:58:20;98483.72;;;6.05;73.57
21086;BME280;34247;50.064;19.970;2023-03-15T03:59:24;98488.06;;;6.06;73.34
21086;BME280;34247;50.064;19.970;2023-03-15T04:00:28;98482.88;;;6.04;73.62
21086;BME280;34247;50.064;19.970;2023-03-15T04:01:31;98469.50;;;6.07;73.66
21086;BME280;34247;50.064;19.970;2023-03-15T04:02:36;98474.31;;;6.01;73.08
21086;BME280;34247;50.064;19.970;2023-03-15T04:03:40;98473.94;;;5.93;73.34
21086;BME280;34247;50.064;19.970;2023-03-15T04:04:44;98484.41;;;5.94;73.14
21086;BME280;34247;50.064;19.970;2023-03-15T04:05:48;98485.06;;;5.98;72.85
21086;BME280;34247;50.064;19.970;2023-03-15T04:06:52;98490.31;;;5.98;72.57
21086;BME280;34247;50.064;19.970;2023-03-15T04:07:56;98486.94;;;5.96;72.64
21086;BME280;34247;50.064;19.970;2023-03-15T04:09:00;98493.81;;;5.98;72.59
21086;BME280;34247;50.064;19.970;2023-03-15T04:10:08;98496.44;;;5.98;72.60
21086;BME280;34247;50.064;19.970;2023-03-15T04:11:12;98502.38;;;6.02;72.22
21086;BME280;34247;50.064;19.970;2023-03-15T04:12:20;98507.16;;;5.95;72.22
21086;BME280;34247;50.064;19.970;2023-03-15T04:13:25;98515.44;;;6.03;72.31
21086;BME280;34247;50.064;19.970;2023-03-15T04:14:28;98521.34;;;6.07;71.88
21086;BME280;34247;50.064;19.970;2023-03-15T04:15:32;98512.44;;;6.10;71.81
21086;BME280;34247;50.064;19.970;2023-03-15T04:16:36;98519.97;;;6.16;71.31
21086;BME280;34247;50.064;19.970;2023-03-15T04:17:44;98522.66;;;6.14;71.44
21086;BME280;34247;50.064;19.970;2023-03-15T04:18:51;98515.34;;;6.19;71.03
21086;BME280;34247;50.064;19.970;2023-03-15T04:19:59;98519.97;;;6.16;70.92
21086;BME280;34247;50.064;19.970;2023-03-15T04:21:09;98524.19;;;6.04;70.85
21086;BME280;34247;50.064;19.970;2023-03-15T04:22:13;98516.28;;;6.04;70.88
21086;BME280;34247;50.064;19.970;2023-03-15T04:23:17;98508.94;;;6.09;70.72
21086;BME280;34247;50.064;19.970;2023-03-15T04:24:21;98515.72;;;6.13;70.54
21086;BME280;34247;50.064;19.970;2023-03-15T04:25:25;98511.28;;;6.14;70.49
21086;BME280;34247;50.064;19.970;2023-03-15T04:26:29;98516.38;;;6.17;70.02
21086;BME280;34247;50.064;19.970;2023-03-15T04:27:33;98515.25;;;6.06;70.38
21086;BME280;34247;50.064;19.970;2023-03-15T04:28:37;98521.47;;;6.05;70.39
21086;BME280;34247;50.064;19.970;2023-03-15T04:29:41;98519.09;;;6.01;70.63
21086;BME280;34247;50.064;19.970;2023-03-15T04:30:49;98522.88;;;5.97;70.83
21086;BME280;34247;50.064;19.970;2023-03-15T04:31:54;98526.34;;;5.97;70.71
21086;BME280;34247;50.064;19.970;2023-03-15T04:33:04;98524.47;;;5.99;70.44
21086;BME280;34247;50.064;19.970;2023-03-15T04:34:08;98529.09;;;5.96;70.72
21086;BME280;34247;50.064;19.970;2023-03-15T04:35:12;98526.06;;;5.88;70.91
21086;BME280;34247;50.064;19.970;2023-03-15T04:36:16;98530.78;;;5.97;70.90
21086;BME280;34247;50.064;19.970;2023-03-15T04:37:23;98539.63;;;5.96;70.44
21086;BME280;34247;50.064;19.970;2023-03-15T04:38:27;98541.59;;;5.92;70.59
21086;BME280;34247;50.064;19.970;2023-03-15T04:39:33;98543.72;;;5.86;70.20
21086;BME280;34247;50.064;19.970;2023-03-15T04:40:38;98539.84;;;5.77;70.51
21086;BME280;34247;50.064;19.970;2023-03-15T04:41:41;98536.22;;;5.79;70.68
21086;BME280;34247;50.064;19.970;2023-03-15T04:42:45;98537.31;;;5.75;70.49
21086;BME280;34247;50.064;19.970;2023-03-15T04:43:49;98534.50;;;5.78;70.75
21086;BME280;34247;50.064;19.970;2023-03-15T04:44:53;98535.81;;;5.86;70.49
21086;BME280;34247;50.064;19.970;2023-03-15T04:45:57;98539.22;;;5.88;70.03
21086;BME280;34247;50.064;19.970;2023-03-15T04:47:01;98545.22;;;5.90;70.49
21086;BME280;34247;50.064;19.970;2023-03-15T04:48:08;98553.50;;;5.84;70.08
21086;BME280;34247;50.064;19.970;2023-03-15T04:49:13;98547.97;;;5.88;70.05
21086;BME280;34247;50.064;19.970;2023-03-15T04:50:18;98560.88;;;5.93;69.82
21086;BME280;34247;50.064;19.970;2023-03-15T04:51:22;98553.53;;;5.98;69.90
21086;BME280;34247;50.064;19.970;2023-03-15T04:52:25;98554.13;;;6.03;69.40
21086;BME280;34247;50.064;19.970;2023-03-15T04:53:29;98563.72;;;6.04;69.38
21086;BME280;34247;50.064;19.970;2023-03-15T04:54:33;98559.00;;;6.09;69.02
21086;BME280;34247;50.064;19.970;2023-03-15T04:55:37;98564.56;;;6.04;68.69
21086;BME280;34247;50.064;19.970;2023-03-15T04:56:41;98568.59;;;6.10;68.85
21086;BME280;34247;50.064;19.970;2023-03-15T04:57:45;98559.09;;;6.07;68.50
21086;BME280;34247;50.064;19.970;2023-03-15T04:58:49;98562.03;;;6.03;68.20
21086;BME280;34247;50.064;19.970;2023-03-15T04:59:52;98564.34;;;6.07;68.37
21086;BME280;34247;50.064;19.970;2023-03-15T05:00:56;98571.88;;;6.14;68.12
21086;BME280;34247;50.064;19.970;2023-03-15T05:02:00;98567.84;;;6.08;67.87
21086;BME280;34247;50.064;19.970;2023-03-15T05:03:06;98572.34;;;6.06;67.77
21086;BME280;34247;50.064;19.970;2023-03-15T05:04:10;98569.09;;;6.02;67.52
21086;BME280;34247;50.064;19.970;2023-03-15T05:05:15;98568.22;;;6.02;67.84
21086;BME280;34247;50.064;19.970;2023-03-15T05:06:19;98567.66;;;5.97;67.63
21086;BME280;34247;50.064;19.970;2023-03-15T05:07:22;98574.63;;;5.98;67.94
21086;BME280;34247;50.064;19.970;2023-03-15T05:08:27;98574.63;;;5.98;67.34
21086;BME280;34247;50.064;19.970;2023-03-15T05:09:34;98574.41;;;6.01;67.40
21086;BME280;34247;50.064;19.970;2023-03-15T05:10:43;98568.94;;;5.90;67.08
21086;BME280;34247;50.064;19.970;2023-03-15T05:11:47;98571.25;;;5.96;67.08
21086;BME280;34247;50.064;19.970;2023-03-15T05:12:51;98571.03;;;5.99;67.09
21086;BME280;34247;50.064;19.970;2023-03-15T05:13:55;98568.31;;;6.00;66.65
21086;BME280;34247;50.064;19.970;2023-03-15T05:14:59;98575.38;;;6.00;66.48
21086;BME280;34247;50.064;19.970;2023-03-15T05:16:04;98575.66;;;5.95;66.82
21086;BME280;34247;50.064;19.970;2023-03-15T05:17:09;98574.19;;;5.90;66.55
21086;BME280;34247;50.064;19.970;2023-03-15T05:18:14;98575.03;;;5.90;66.30
21086;BME280;34247;50.064;19.970;2023-03-15T05:19:18;98581.00;;;5.94;66.04
21086;BME280;34247;50.064;19.970;2023-03-15T05:20:22;98576.00;;;5.89;65.98
21086;BME280;34247;50.064;19.970;2023-03-15T05:21:28;98577.63;;;5.92;65.89
21086;BME280;34247;50.064;19.970;2023-03-15T05:22:32;98588.72;;;5.97;65.92
21086;BME280;34247;50.064;19.970;2023-03-15T05:23:36;98592.47;;;5.93;65.13
21086;BME280;34247;50.064;19.970;2023-03-15T05:24:40;98591.91;;;5.88;65.49
21086;BME280;34247;50.064;19.970;2023-03-15T05:25:53;98600.66;;;5.88;65.10
21086;BME280;34247;50.064;19.970;2023-03-15T05:27:00;98598.84;;;5.89;65.12
21086;BME280;34247;50.064;19.970;2023-03-15T05:28:04;98603.19;;;5.90;64.80
21086;BME280;34247;50.064;19.970;2023-03-15T05:29:08;98603.53;;;5.84;65.06
21086;BME280;34247;50.064;19.970;2023-03-15T05:30:13;98608.44;;;5.90;65.31
21086;BME280;34247;50.064;19.970;2023-03-15T05:31:18;98611.50;;;5.98;65.08
21086;BME280;34247;50.064;19.970;2023-03-15T05:32:25;98613.38;;;5.96;65.02
21086;BME280;34247;50.064;19.970;2023-03-15T05:33:29;98618.66;;;5.96;65.03
21086;BME280;34247;50.064;19.970;2023-03-15T05:34:34;98618.34;;;6.00;64.22
21086;BME280;34247;50.064;19.970;2023-03-15T05:35:38;98610.94;;;6.07;64.36
21086;BME280;34247;50.064;19.970;2023-03-15T05:36:43;98613.50;;;6.08;64.42
21086;BME280;34247;50.064;19.970;2023-03-15T05:37:47;98615.19;;;6.10;64.40
21086;BME280;34247;50.064;19.970;2023-03-15T05:38:50;98615.66;;;6.02;63.96
21086;BME280;34247;50.064;19.970;2023-03-15T05:39:55;98618.84;;;6.07;64.07
21086;BME280;34247;50.064;19.970;2023-03-15T05:41:00;98621.47;;;6.07;64.27
21086;BME280;34247;50.064;19.970;2023-03-15T05:42:07;98620.34;;;6.11;63.69
21086;BME280;34247;50.064;19.970;2023-03-15T05:43:14;98626.56;;;6.10;63.85
21086;BME280;34247;50.064;19.970;2023-03-15T05:44:18;98628.06;;;6.14;63.54
21086;BME280;34247;50.064;19.970;2023-03-15T05:45:22;98635.97;;;6.14;63.64
21086;BME280;34247;50.064;19.970;2023-03-15T05:46:27;98634.97;;;6.17;63.33
21086;BME280;34247;50.064;19.970;2023-03-15T05:47:34;98636.91;;;6.13;63.65
21086;BME280;34247;50.064;19.970;2023-03-15T05:48:38;98638.97;;;6.08;63.59
21086;BME280;34247;50.064;19.970;2023-03-15T05:49:42;98640.22;;;6.17;63.90
21086;BME280;34247;50.064;19.970;2023-03-15T05:50:46;98645.97;;;6.23;63.39
21086;BME280;34247;50.064;19.970;2023-03-15T05:51:50;98657.84;;;6.30;63.44
21086;BME280;34247;50.064;19.970;2023-03-15T05:52:55;98647.94;;;6.34;63.45
21086;BME280;34247;50.064;19.970;2023-03-15T05:53:59;98648.69;;;6.36;62.73
21086;BME280;34247;50.064;19.970;2023-03-15T05:55:04;98651.31;;;6.36;62.51
21086;BME280;34247;50.064;19.970;2023-03-15T05:56:08;98653.22;;;6.34;61.96
21086;BME280;34247;50.064;19.970;2023-03-15T05:57:12;98652.75;;;6.27;62.37
21086;BME280;34247;50.064;19.970;2023-03-15T05:58:16;98651.31;;;6.22;62.36
21086;BME280;34247;50.064;19.970;2023-03-15T05:59:23;98668.56;;;6.27;62.52
21086;BME280;34247;50.064;19.970;2023-03-15T06:00:27;98664.22;;;6.26;62.36
21086;BME280;34247;50.064;19.970;2023-03-15T06:01:31;98660.25;;;6.19;61.85
21086;BME280;34247;50.064;19.970;2023-03-15T06:02:34;98669.03;;;6.20;61.86
21086;BME280;34247;50.064;19.970;2023-03-15T06:03:38;98672.41;;;6.22;62.15
21086;BME280;34247;50.064;19.970;2023-03-15T06:04:42;98672.59;;;6.19;61.85
21086;BME280;34247;50.064;19.970;2023-03-15T06:05:46;98675.34;;;6.17;61.82
21086;BME280;34247;50.064;19.970;2023-03-15T06:06:51;98673.63;;;6.16;61.98
21086;BME280;34247;50.064;19.970;2023-03-15T06:07:55;98685.88;;;6.17;61.91
21086;BME280;34247;50.064;19.970;2023-03-15T06:08:59;98687.91;;;6.12;62.14
21086;BME280;34247;50.064;19.970;2023-03-15T06:10:05;98688.13;;;6.09;61.72
21086;BME280;34247;50.064;19.970;2023-03-15T06:11:09;98683.41;;;6.14;61.85
21086;BME280;34247;50.064;19.970;2023-03-15T06:12:13;98683.97;;;6.19;61.68
21086;BME280;34247;50.064;19.970;2023-03-15T06:13:19;98683.03;;;6.20;61.45